Time;durP1;ratioP1;P1;durP2;ratioP2;P2;SDS_P1;SDS_P2;PMS_P1;PMS_P2;Temp;Humidity;BMP_temperature;BMP_pressure;BME280_temperature;BME280_humidity;BME280_pressure;Samples;Min_cycle;Max_cycle;Signal;HPM_P1;HPM_P2
2022/09/18 00:01:14;;;;;;;2.15;0.80;;;12.60;99.90;;;;;;5008288;28;20069;-83
2022/09/18 00:03:41;;;;;;;4.72;1.10;;;12.50;99.90;;;;;;5011075;28;20061;-84
2022/09/18 00:06:12;;;;;;;4.10;0.88;;;12.50;99.90;;;;;;5011818;28;20188;-84
2022/09/18 00:08:42;;;;;;;3.38;1.02;;;12.40;99.90;;;;;;4998726;28;20050;-83
2022/09/18 00:11:11;;;;;;;5.75;1.10;;;12.40;99.90;;;;;;5009936;28;20050;-83
2022/09/18 00:13:40;;;;;;;4.57;0.75;;;12.40;99.90;;;;;;5000806;28;20519;-83
2022/09/18 00:16:09;;;;;;;2.90;0.80;;;12.30;99.90;;;;;;5002488;28;20042;-83
2022/09/18 00:18:36;;;;;;;2.13;0.80;;;12.30;99.90;;;;;;4993305;28;20438;-83
2022/09/18 00:21:15;;;;;;;5.43;1.20;;;12.30;99.90;;;;;;5000408;28;20053;-84
2022/09/18 00:23:44;;;;;;;6.18;1.50;;;12.20;99.90;;;;;;4998417;28;20057;-83
2022/09/18 00:26:13;;;;;;;2.05;0.90;;;12.20;99.90;;;;;;5000917;28;20089;-83
2022/09/18 00:28:39;;;;;;;4.72;0.98;;;12.20;99.90;;;;;;5010027;28;20042;-83
2022/09/18 00:31:16;;;;;;;4.45;1.40;;;12.20;99.90;;;;;;4998732;28;20094;-83
2022/09/18 00:33:43;;;;;;;3.05;1.00;;;12.20;99.90;;;;;;5006549;28;20080;-83
2022/09/18 00:36:12;;;;;;;3.92;0.80;;;12.10;99.90;;;;;;5007697;28;20498;-83
2022/09/18 00:38:39;;;;;;;6.20;0.80;;;12.10;99.90;;;;;;5009867;28;20520;-83
2022/09/18 00:41:11;;;;;;;3.83;0.77;;;12.00;99.90;;;;;;5008713;28;20399;-83
2022/09/18 00:43:38;;;;;;;3.25;0.98;;;12.10;99.90;;;;;;5009900;28;20068;-83
2022/09/18 00:46:08;;;;;;;4.50;0.93;;;12.10;99.90;;;;;;5010303;28;20046;-83
2022/09/18 00:48:52;;;;;;;5.30;1.05;;;12.20;99.90;;;;;;4995024;28;20046;-83
2022/09/18 00:51:19;;;;;;;5.00;1.20;;;12.30;99.90;;;;;;5012019;28;20068;-83
2022/09/18 00:53:54;;;;;;;4.00;0.90;;;12.30;99.90;;;;;;5011514;28;20100;-83
2022/09/18 00:56:21;;;;;;;2.38;0.77;;;12.30;99.90;;;;;;5012563;28;20056;-83
2022/09/18 00:58:48;;;;;;;4.20;1.13;;;12.40;99.90;;;;;;5016223;28;20060;-83
2022/09/18 01:01:15;;;;;;;6.43;1.25;;;12.40;99.90;;;;;;5018973;28;20046;-83
2022/09/18 01:03:42;;;;;;;6.78;0.93;;;12.40;99.90;;;;;;5022896;28;20065;-82
2022/09/18 01:06:29;;;;;;;4.50;1.00;;;12.30;99.90;;;;;;5008684;28;20112;-83
2022/09/18 01:09:17;;;;;;;5.50;0.90;;;12.40;99.90;;;;;;5008969;28;20052;-83
2022/09/18 01:12:23;;;;;;;4.70;0.90;;;12.40;99.90;;;;;;5009304;28;20548;-83
2022/09/18 01:14:53;;;;;;;7.10;1.23;;;12.40;99.90;;;;;;4996577;28;20499;-83
2022/09/18 01:17:29;;;;;;;6.30;0.90;;;12.50;99.90;;;;;;5014638;28;20046;-83
2022/09/18 01:20:05;;;;;;;5.03;1.10;;;12.50;99.90;;;;;;5020451;28;20523;-83
2022/09/18 01:23:00;;;;;;;5.55;0.80;;;12.50;99.90;;;;;;5008441;28;20500;-83
2022/09/18 01:26:00;;;;;;;5.78;0.88;;;12.50;99.90;;;;;;5004251;28;20152;-84
2022/09/18 01:28:49;;;;;;;3.33;0.88;;;12.60;99.90;;;;;;5017418;28;20714;-83
2022/09/18 01:31:23;;;;;;;6.18;1.33;;;12.60;99.90;;;;;;5008341;28;20068;-83
2022/09/18 01:34:03;;;;;;;6.75;0.90;;;12.60;99.90;;;;;;4997243;28;20049;-83
2022/09/18 01:36:38;;;;;;;6.97;0.82;;;12.60;99.90;;;;;;5001434;28;20042;-83
2022/09/18 01:39:12;;;;;;;3.83;0.95;;;12.60;99.90;;;;;;5005465;28;20050;-83
2022/09/18 01:41:41;;;;;;;5.45;1.00;;;12.60;99.90;;;;;;5006452;28;20143;-83
2022/09/18 01:44:13;;;;;;;1.52;0.70;;;12.60;99.90;;;;;;4995656;28;20069;-83
2022/09/18 01:46:43;;;;;;;4.10;0.80;;;12.60;99.90;;;;;;5006308;28;20049;-83
2022/09/18 01:49:13;;;;;;;5.40;0.95;;;12.60;99.90;;;;;;5009808;28;20051;-83
2022/09/18 01:51:46;;;;;;;;;;;12.50;99.90;;;;;;5009346;28;20484;-83
2022/09/18 01:54:17;;;;;;;4.22;1.13;;;12.50;99.90;;;;;;5010877;28;19922;-83
2022/09/18 01:56:58;;;;;;;8.98;1.00;;;12.60;99.90;;;;;;5010959;28;20476;-83
2022/09/18 01:59:30;;;;;;;3.17;0.80;;;12.60;99.90;;;;;;5011577;28;20061;-83
2022/09/18 02:02:02;;;;;;;4.13;0.98;;;12.60;99.90;;;;;;5009298;28;20477;-83
2022/09/18 02:04:34;;;;;;;3.13;1.20;;;12.60;99.90;;;;;;5008235;28;20065;-83
2022/09/18 02:07:27;;;;;;;3.45;0.73;;;12.60;99.90;;;;;;4997110;28;20085;-83
2022/09/18 02:09:54;;;;;;;4.88;1.10;;;12.50;99.90;;;;;;5012167;28;20050;-83
2022/09/18 02:12:23;;;;;;;8.32;1.55;;;12.50;99.90;;;;;;5011820;28;20496;-83
2022/09/18 02:14:54;;;;;;;3.15;0.77;;;12.50;99.90;;;;;;5010608;28;20050;-83
2022/09/18 02:17:28;;;;;;;3.03;1.35;;;12.50;99.90;;;;;;5013506;28;20053;-83
2022/09/18 02:19:59;;;;;;;4.47;1.17;;;12.50;99.90;;;;;;5011933;28;20049;-83
2022/09/18 02:22:30;;;;;;;5.07;0.90;;;12.50;99.90;;;;;;5012767;28;20065;-83
2022/09/18 02:25:00;;;;;;;3.58;0.98;;;12.50;99.90;;;;;;5005372;28;20095;-83
2022/09/18 02:27:30;;;;;;;1.65;0.70;;;12.60;99.90;;;;;;5011020;28;20046;-83
2022/09/18 02:29:59;;;;;;;;;;;12.60;99.90;;;;;;5013394;28;20053;-83
2022/09/18 02:32:26;;;;;;;5.25;1.00;;;12.60;99.90;;;;;;5005284;28;19925;-83
2022/09/18 02:34:53;;;;;;;2.63;0.75;;;12.60;99.90;;;;;;5005158;28;20049;-83
2022/09/18 02:37:52;;;;;;;4.90;0.70;;;12.50;99.90;;;;;;5012958;28;20136;-83
2022/09/18 02:40:51;;;;;;;5.10;1.00;;;12.50;99.90;;;;;;5005133;28;20137;-83
2022/09/18 02:43:24;;;;;;;2.92;0.82;;;12.60;99.90;;;;;;4993494;28;20053;-83
2022/09/18 02:46:38;;;;;;;5.22;0.90;;;12.50;99.90;;;;;;5010310;28;20404;-83
2022/09/18 02:49:25;;;;;;;3.33;0.82;;;12.50;99.90;;;;;;5004909;28;20058;-83
2022/09/18 02:52:02;;;;;;;4.68;0.80;;;12.50;99.90;;;;;;5014320;28;20057;-83
2022/09/18 02:54:38;;;;;;;4.13;1.05;;;12.50;99.90;;;;;;4998424;28;20048;-83
2022/09/18 02:57:14;;;;;;;4.70;0.70;;;12.50;99.90;;;;;;4996757;28;20121;-83
2022/09/18 02:59:54;;;;;;;5.85;1.17;;;12.50;99.90;;;;;;4995939;28;20542;-83
2022/09/18 03:02:21;;;;;;;3.40;0.73;;;12.50;99.90;;;;;;4998518;28;20046;-83
2022/09/18 03:04:48;;;;;;;4.97;1.02;;;12.50;99.90;;;;;;5006191;28;20064;-83
2022/09/18 03:07:16;;;;;;;2.28;0.88;;;12.50;99.90;;;;;;5013617;28;20045;-83
2022/09/18 03:09:42;;;;;;;5.47;1.20;;;12.50;99.90;;;;;;4995693;28;20506;-83
2022/09/18 03:12:10;;;;;;;3.60;1.20;;;12.50;99.90;;;;;;5012691;28;20132;-83
2022/09/18 03:14:37;;;;;;;7.07;1.90;;;12.50;99.90;;;;;;5018344;28;20066;-84
2022/09/18 03:17:04;;;;;;;3.42;1.00;;;12.50;99.90;;;;;;4999169;28;20129;-83
2022/09/18 03:19:31;;;;;;;4.43;1.02;;;12.50;99.90;;;;;;4999012;28;20148;-83
2022/09/18 03:21:57;;;;;;;5.30;1.02;;;12.50;99.90;;;;;;5010363;28;20049;-83
2022/09/18 03:24:24;;;;;;;3.22;1.02;;;12.50;99.90;;;;;;5011149;28;20062;-83
2022/09/18 03:26:52;;;;;;;7.63;0.98;;;12.50;99.90;;;;;;5006782;28;20045;-84
2022/09/18 03:29:18;;;;;;;4.32;0.88;;;12.40;99.90;;;;;;5011193;28;20058;-83
2022/09/18 03:31:45;;;;;;;3.20;0.90;;;12.50;99.90;;;;;;5009176;28;20049;-84
2022/09/18 03:34:12;;;;;;;3.55;0.80;;;12.40;99.90;;;;;;5003440;28;20112;-83
2022/09/18 03:36:39;;;;;;;4.68;1.02;;;12.40;99.90;;;;;;5004109;28;20507;-83
2022/09/18 03:39:06;;;;;;;3.97;1.15;;;12.40;99.90;;;;;;5011026;28;20056;-83
2022/09/18 03:41:32;;;;;;;3.17;1.00;;;12.40;99.90;;;;;;5001627;28;20072;-83
2022/09/18 03:43:59;;;;;;;7.13;1.45;;;12.30;99.90;;;;;;5001359;28;20484;-83
2022/09/18 03:46:26;;;;;;;3.08;0.95;;;12.20;99.90;;;;;;5001937;28;20046;-83
2022/09/18 03:48:53;;;;;;;4.97;1.10;;;12.10;99.90;;;;;;5000038;28;20050;-83
2022/09/18 03:51:20;;;;;;;4.93;1.02;;;12.10;99.90;;;;;;5000058;28;20599;-83
2022/09/18 03:53:47;;;;;;;4.70;0.93;;;12.00;99.90;;;;;;4998554;28;20046;-83
2022/09/18 03:56:14;;;;;;;5.82;1.02;;;12.10;99.90;;;;;;4994018;28;20137;-83
2022/09/18 03:58:41;;;;;;;6.75;1.05;;;12.10;99.90;;;;;;5005108;28;20038;-83
2022/09/18 04:01:08;;;;;;;4.00;1.30;;;12.10;99.90;;;;;;5006002;28;20084;-83
2022/09/18 04:03:35;;;;;;;4.88;1.00;;;12.10;99.90;;;;;;4995871;28;20133;-83
2022/09/18 04:06:02;;;;;;;3.45;1.00;;;12.10;99.90;;;;;;4995513;28;20133;-83
2022/09/18 04:08:28;;;;;;;2.58;0.85;;;12.10;99.90;;;;;;4993424;28;20408;-83
2022/09/18 04:10:55;;;;;;;4.70;1.08;;;12.00;99.90;;;;;;5001067;28;20042;-83
2022/09/18 04:13:22;;;;;;;3.22;0.80;;;12.00;99.90;;;;;;5012921;28;20054;-83
2022/09/18 04:15:49;;;;;;;3.97;0.80;;;11.90;99.90;;;;;;5008866;28;20146;-83
2022/09/18 04:18:16;;;;;;;6.07;1.20;;;11.90;99.90;;;;;;5009700;28;20038;-83
2022/09/18 04:20:43;;;;;;;3.25;1.10;;;11.80;99.90;;;;;;4996198;28;20050;-83
2022/09/18 04:23:13;;;;;;;3.20;1.23;;;11.80;99.90;;;;;;4998069;28;20042;-83
2022/09/18 04:25:42;;;;;;;5.80;1.00;;;11.80;99.90;;;;;;4999236;28;20399;-83
2022/09/18 04:28:10;;;;;;;3.42;1.17;;;11.70;99.90;;;;;;5007002;28;20049;-83
2022/09/18 04:30:37;;;;;;;2.67;0.73;;;11.70;99.90;;;;;;5015266;28;20058;-83
2022/09/18 04:33:04;;;;;;;8.05;1.20;;;11.70;99.90;;;;;;5021690;28;20061;-83
2022/09/18 04:35:30;;;;;;;3.65;0.82;;;11.60;99.90;;;;;;5020714;28;20050;-82
2022/09/18 04:37:57;;;;;;;6.13;1.40;;;11.60;99.90;;;;;;5026471;28;20061;-82
2022/09/18 04:40:24;;;;;;;3.83;0.95;;;11.60;99.90;;;;;;5018468;28;20109;-82
2022/09/18 04:42:51;;;;;;;3.03;0.90;;;11.60;99.90;;;;;;5015874;28;20113;-83
2022/09/18 04:45:17;;;;;;;5.38;0.98;;;11.50;99.90;;;;;;5012748;28;20519;-83
2022/09/18 04:47:46;;;;;;;3.42;0.80;;;11.50;99.90;;;;;;5013456;28;20512;-83
2022/09/18 04:50:13;;;;;;;6.05;1.85;;;11.50;99.90;;;;;;5017466;28;20115;-82
2022/09/18 04:52:40;;;;;;;4.47;1.15;;;11.50;99.90;;;;;;5000318;28;20133;-82
2022/09/18 04:55:07;;;;;;;4.05;1.20;;;11.40;99.90;;;;;;5011514;28;20089;-82
2022/09/18 04:57:34;;;;;;;5.03;1.17;;;11.40;99.90;;;;;;5007736;28;20137;-83
2022/09/18 05:00:02;;;;;;;3.95;1.25;;;11.40;99.90;;;;;;4998920;28;20046;-83
2022/09/18 05:02:29;;;;;;;7.25;1.27;;;11.30;99.90;;;;;;4997789;28;20053;-82
2022/09/18 05:04:56;;;;;;;6.88;1.30;;;11.20;99.90;;;;;;4994366;28;20136;-82
2022/09/18 05:07:22;;;;;;;5.47;0.93;;;11.20;99.90;;;;;;5004967;28;20057;-83
2022/09/18 05:09:49;;;;;;;6.63;1.00;;;11.20;99.90;;;;;;5005931;28;20062;-83
2022/09/18 05:12:16;;;;;;;4.97;1.00;;;11.20;99.90;;;;;;5004373;28;20137;-82
2022/09/18 05:14:43;;;;;;;4.75;1.20;;;11.10;99.90;;;;;;4996852;28;20043;-82
2022/09/18 05:17:10;;;;;;;4.38;1.45;;;11.10;99.90;;;;;;5003529;28;20085;-82
2022/09/18 05:19:36;;;;;;;2.10;0.90;;;11.10;99.90;;;;;;5007581;28;20511;-83
2022/09/18 05:22:03;;;;;;;4.15;0.80;;;11.10;99.90;;;;;;5009199;28;20042;-82
2022/09/18 05:24:30;;;;;;;7.03;1.00;;;11.10;99.90;;;;;;5012392;28;20877;-83
2022/09/18 05:26:57;;;;;;;5.70;1.08;;;11.00;99.90;;;;;;5011299;28;20141;-82
2022/09/18 05:29:23;;;;;;;3.03;1.10;;;11.00;99.90;;;;;;4996711;28;20050;-83
2022/09/18 05:31:50;;;;;;;7.22;1.60;;;11.00;99.90;;;;;;4996245;28;20137;-83
2022/09/18 05:34:17;;;;;;;4.20;0.73;;;11.00;99.90;;;;;;5010617;28;20054;-83
2022/09/18 05:36:45;;;;;;;6.90;1.20;;;11.00;99.90;;;;;;5009494;28;20061;-83
2022/09/18 05:39:11;;;;;;;4.35;1.25;;;11.00;99.90;;;;;;4998262;28;20054;-82
2022/09/18 05:41:43;;;;;;;2.45;1.10;;;10.80;99.90;;;;;;5003292;28;20137;-83
2022/09/18 05:44:10;;;;;;;7.18;1.25;;;10.80;99.90;;;;;;5005572;28;20058;-83
2022/09/18 05:46:36;;;;;;;4.43;1.20;;;10.80;99.90;;;;;;5004399;28;20071;-82
2022/09/18 05:49:05;;;;;;;5.65;1.20;;;10.80;99.90;;;;;;5013751;28;20049;-83
2022/09/18 05:51:32;;;;;;;6.30;1.15;;;10.80;99.90;;;;;;5013036;28;20480;-83
2022/09/18 05:53:58;;;;;;;1.27;0.80;;;10.80;99.90;;;;;;5005527;28;20058;-82
2022/09/18 05:56:26;;;;;;;6.43;1.13;;;10.80;99.90;;;;;;5005835;28;20046;-82
2022/09/18 05:58:53;;;;;;;3.50;1.38;;;10.80;99.90;;;;;;5010592;28;20535;-82
2022/09/18 06:01:20;;;;;;;3.40;1.10;;;10.80;99.90;;;;;;5001024;28;20052;-82
2022/09/18 06:03:50;;;;;;;5.30;1.10;;;10.80;99.90;;;;;;5001077;28;20431;-83
2022/09/18 06:06:17;;;;;;;3.45;1.05;;;10.80;99.90;;;;;;4999268;28;20543;-83
2022/09/18 06:08:44;;;;;;;6.97;1.02;;;10.80;99.90;;;;;;5001045;28;20060;-83
2022/09/18 06:11:11;;;;;;;3.05;0.90;;;10.80;99.90;;;;;;5010578;28;20061;-82
2022/09/18 06:13:38;;;;;;;3.20;1.10;;;10.90;99.90;;;;;;5010613;28;20061;-83
2022/09/18 06:16:05;;;;;;;3.28;0.95;;;10.90;99.90;;;;;;4996430;28;20046;-82
2022/09/18 06:18:31;;;;;;;3.08;1.10;;;10.90;99.90;;;;;;4996913;28;20054;-82
2022/09/18 06:20:58;;;;;;;4.43;1.00;;;11.00;99.90;;;;;;5012921;28;20050;-82
2022/09/18 06:23:27;;;;;;;2.83;1.00;;;11.10;99.90;;;;;;5013771;28;20088;-83
2022/09/18 06:25:59;;;;;;;5.00;1.38;;;11.10;99.90;;;;;;5013833;28;20049;-83
2022/09/18 06:28:26;;;;;;;5.40;0.93;;;11.10;99.90;;;;;;5011912;28;20137;-82
2022/09/18 06:30:53;;;;;;;4.05;1.10;;;11.20;99.90;;;;;;5011077;28;20054;-83
2022/09/18 06:33:19;;;;;;;4.00;0.73;;;11.20;99.90;;;;;;4998067;28;20156;-82
2022/09/18 06:35:52;;;;;;;4.68;1.13;;;11.30;99.90;;;;;;5016073;28;20049;-82
2022/09/18 06:38:18;;;;;;;4.80;1.00;;;11.30;99.90;;;;;;4998940;28;20049;-82
2022/09/18 06:40:53;;;;;;;3.65;0.90;;;11.30;99.90;;;;;;5009732;28;20118;-82
2022/09/18 06:43:20;;;;;;;5.95;0.90;;;11.30;99.90;;;;;;5015077;28;20053;-82
2022/09/18 06:45:51;;;;;;;8.73;1.08;;;11.30;99.90;;;;;;5011057;28;20050;-83
2022/09/18 06:48:19;;;;;;;5.45;0.77;;;11.30;99.90;;;;;;5010631;28;20484;-84
2022/09/18 06:50:56;;;;;;;3.10;0.95;;;11.40;99.90;;;;;;5012136;28;20050;-82
2022/09/18 06:53:25;;;;;;;6.45;1.05;;;11.50;99.90;;;;;;5003347;28;20054;-83
2022/09/18 06:55:51;;;;;;;4.93;1.13;;;11.50;99.90;;;;;;5011542;28;20125;-83
2022/09/18 06:58:19;;;;;;;3.55;1.10;;;11.60;99.90;;;;;;5010187;28;20046;-83
2022/09/18 07:00:46;;;;;;;3.80;1.00;;;11.80;99.90;;;;;;5004339;28;20377;-83
2022/09/18 07:03:13;;;;;;;4.35;1.58;;;11.80;99.90;;;;;;5006875;28;20042;-83
2022/09/18 07:05:41;;;;;;;3.42;0.95;;;11.90;99.90;;;;;;5001768;28;20050;-82
2022/09/18 07:08:09;;;;;;;4.15;1.25;;;11.90;99.90;;;;;;5000270;28;20085;-81
2022/09/18 07:10:36;;;;;;;4.72;1.27;;;11.90;99.90;;;;;;5000149;28;20141;-83
2022/09/18 07:13:04;;;;;;;2.72;1.00;;;11.90;99.90;;;;;;5014858;28;20056;-83
2022/09/18 07:15:31;;;;;;;2.58;0.88;;;11.90;99.90;;;;;;5002439;28;20050;-83
2022/09/18 07:17:59;;;;;;;1.17;0.70;;;11.90;99.90;;;;;;4997147;28;20050;-85
2022/09/18 07:20:28;;;;;;;5.53;1.05;;;11.90;99.90;;;;;;5002971;28;20482;-82
2022/09/18 07:23:00;;;;;;;4.05;1.27;;;11.90;99.90;;;;;;5004461;28;20045;-83
2022/09/18 07:25:28;;;;;;;3.78;1.45;;;12.00;99.90;;;;;;5008250;28;20050;-83
2022/09/18 07:28:01;;;;;;;7.55;1.20;;;12.00;99.90;;;;;;4998139;28;20046;-82
2022/09/18 07:30:28;;;;;;;2.95;0.85;;;12.00;99.90;;;;;;5014394;28;20060;-84
2022/09/18 07:32:55;;;;;;;5.38;0.80;;;12.00;99.90;;;;;;5007762;28;20061;-83
2022/09/18 07:35:22;;;;;;;2.28;0.73;;;12.00;99.90;;;;;;5014035;28;20104;-83
2022/09/18 07:37:48;;;;;;;4.13;1.00;;;12.00;99.90;;;;;;5010635;28;20052;-83
2022/09/18 07:40:15;;;;;;;2.97;0.90;;;12.10;99.90;;;;;;5010037;28;20045;-80
2022/09/18 07:42:42;;;;;;;4.53;1.15;;;12.10;99.90;;;;;;5006335;28;20042;-83
2022/09/18 07:45:09;;;;;;;5.80;0.77;;;12.10;99.90;;;;;;5003199;28;20049;-83
2022/09/18 07:47:36;;;;;;;4.28;0.63;;;12.10;99.90;;;;;;5001138;28;20407;-83
2022/09/18 07:50:03;;;;;;;3.92;1.08;;;12.10;99.90;;;;;;5000760;28;20058;-83
2022/09/18 07:52:30;;;;;;;4.10;1.00;;;12.20;99.90;;;;;;4999883;28;20048;-82
2022/09/18 07:54:57;;;;;;;1.15;0.70;;;12.20;99.90;;;;;;5002023;28;20080;-83
2022/09/18 07:57:24;;;;;;;2.60;1.10;;;12.20;99.90;;;;;;5002898;28;20129;-83
2022/09/18 07:59:52;;;;;;;5.30;1.00;;;12.30;99.90;;;;;;5006702;28;20125;-83
2022/09/18 08:02:19;;;;;;;4.28;0.80;;;12.30;99.90;;;;;;5007995;28;20057;-83
2022/09/18 08:04:46;;;;;;;2.65;0.90;;;12.30;99.90;;;;;;5006667;28;20038;-83
2022/09/18 08:07:12;;;;;;;4.28;0.95;;;12.40;99.90;;;;;;5007490;28;20053;-84
2022/09/18 08:09:40;;;;;;;3.50;1.10;;;12.40;99.90;;;;;;5007547;28;20039;-83
2022/09/18 08:12:38;;;;;;;4.43;1.08;;;12.40;99.90;;;;;;5010791;28;20455;-83
2022/09/18 08:15:05;;;;;;;4.57;1.17;;;12.40;99.90;;;;;;5016624;28;20053;-83
2022/09/18 08:17:31;;;;;;;2.05;0.93;;;12.50;99.90;;;;;;5002975;28;20049;-83
2022/09/18 08:19:58;;;;;;;5.57;0.90;;;12.50;99.90;;;;;;5018418;28;20058;-83
2022/09/18 08:22:25;;;;;;;5.07;0.85;;;12.50;99.90;;;;;;5012180;28;20106;-83
2022/09/18 08:24:52;;;;;;;6.10;1.15;;;12.50;99.90;;;;;;5010341;28;20062;-83
2022/09/18 08:27:18;;;;;;;4.00;1.05;;;12.60;99.90;;;;;;5000363;28;20049;-82
2022/09/18 08:29:46;;;;;;;5.13;1.13;;;12.60;99.90;;;;;;4996866;28;20042;-83
2022/09/18 08:32:13;;;;;;;4.10;0.80;;;12.60;99.90;;;;;;4996896;28;20385;-83
2022/09/18 08:34:39;;;;;;;2.17;0.82;;;12.60;99.90;;;;;;4993754;28;20046;-83
2022/09/18 08:37:06;;;;;;;3.63;1.00;;;12.70;99.90;;;;;;4997766;28;20046;-83
2022/09/18 08:39:33;;;;;;;6.57;1.13;;;12.70;99.90;;;;;;5000732;28;20054;-82
2022/09/18 08:42:37;;;;;;;6.82;1.20;;;12.70;99.90;;;;;;4998332;28;20038;-82
2022/09/18 08:45:16;;;;;;;3.50;0.90;;;12.80;99.90;;;;;;4999499;28;20053;-82
2022/09/18 08:47:57;;;;;;;9.10;1.10;;;12.90;99.90;;;;;;4999625;28;20516;-82
2022/09/18 08:50:34;;;;;;;6.38;1.23;;;12.90;99.90;;;;;;5006393;28;20050;-82
2022/09/18 08:53:19;;;;;;;3.90;0.70;;;13.00;99.90;;;;;;5006716;28;20503;-81
2022/09/18 08:55:47;;;;;;;2.60;0.73;;;13.10;99.90;;;;;;5012810;28;20045;-81
2022/09/18 08:58:18;;;;;;;4.40;1.00;;;13.10;99.90;;;;;;5020924;28;20056;-81
2022/09/18 09:00:49;;;;;;;5.53;0.90;;;13.30;99.90;;;;;;5014248;28;20052;-81
2022/09/18 09:03:33;;;;;;;2.85;1.00;;;13.50;99.90;;;;;;5019083;28;20065;-82
2022/09/18 09:06:18;;;;;;;5.35;1.08;;;13.60;99.90;;;;;;5015959;28;20054;-82
2022/09/18 09:09:09;;;;;;;7.15;1.05;;;13.80;99.90;;;;;;5016359;28;20070;-82
2022/09/18 09:12:00;;;;;;;2.20;0.75;;;13.80;99.90;;;;;;5017707;28;20104;-82
2022/09/18 09:15:09;;;;;;;2.90;1.02;;;13.90;99.90;;;;;;5016306;28;20077;-82
2022/09/18 09:17:49;;;;;;;2.15;0.93;;;13.90;99.90;;;;;;4999813;28;20443;-82
2022/09/18 09:20:31;;;;;;;4.10;0.77;;;13.90;99.90;;;;;;5006865;28;20117;-81
2022/09/18 09:23:04;;;;;;;4.40;1.20;;;13.90;99.90;;;;;;5004349;28;20054;-82
2022/09/18 09:26:13;;;;;;;4.32;1.00;;;13.90;99.90;;;;;;5002593;28;20057;-82
2022/09/18 09:29:02;;;;;;;8.32;1.00;;;13.90;99.90;;;;;;4995055;28;20505;-82
2022/09/18 09:31:35;;;;;;;4.10;0.88;;;13.90;99.90;;;;;;4999249;28;20399;-82
2022/09/18 09:34:05;;;;;;;1.85;0.80;;;13.80;99.90;;;;;;5011946;28;20100;-81
2022/09/18 09:36:35;;;;;;;4.43;1.00;;;13.80;99.90;;;;;;5001599;28;20050;-81
2022/09/18 09:39:38;;;;;;;2.85;1.05;;;13.80;99.90;;;;;;5002387;28;20539;-81
2022/09/18 09:42:40;;;;;;;4.82;0.80;;;13.90;99.90;;;;;;5013575;28;20074;-81
2022/09/18 09:45:23;;;;;;;6.03;0.73;;;13.90;99.90;;;;;;4999413;28;20133;-81
2022/09/18 09:48:40;;;;;;;3.67;1.08;;;13.90;99.90;;;;;;5010282;28;20061;-80
2022/09/18 09:51:35;;;;;;;2.10;0.80;;;14.00;99.90;;;;;;5009722;28;20047;-82
2022/09/18 09:54:02;;;;;;;1.38;0.80;;;14.10;99.90;;;;;;4989859;28;20070;-82
2022/09/18 09:56:38;;;;;;;2.85;0.85;;;14.20;99.90;;;;;;5003527;28;20045;-82
2022/09/18 09:59:21;;;;;;;4.57;1.08;;;14.30;99.90;;;;;;5012174;28;20057;-82
2022/09/18 10:02:15;;;;;;;3.38;0.70;;;14.30;99.90;;;;;;5004722;28;20077;-82
2022/09/18 10:05:18;;;;;;;2.75;0.70;;;14.30;99.90;;;;;;5025704;28;20046;-82
2022/09/18 10:07:48;;;;;;;4.03;0.88;;;14.30;99.90;;;;;;5008805;28;20058;-82
2022/09/18 10:10:35;;;;;;;1.52;0.60;;;14.30;99.90;;;;;;5009042;28;20081;-82
2022/09/18 10:13:13;;;;;;;2.03;0.70;;;14.30;99.90;;;;;;5023058;28;20150;-81
2022/09/18 10:15:46;;;;;;;3.63;0.73;;;14.30;99.90;;;;;;5015594;28;20043;-81
2022/09/18 10:18:17;;;;;;;5.47;1.05;;;14.30;99.90;;;;;;5008174;28;20050;-81
2022/09/18 10:20:47;;;;;;;3.33;1.00;;;14.40;99.90;;;;;;5014924;28;20137;-81
2022/09/18 10:23:27;;;;;;;3.85;1.10;;;14.40;99.90;;;;;;5009158;28;20049;-81
2022/09/18 10:26:00;;;;;;;2.70;0.90;;;14.50;99.90;;;;;;5008279;28;20056;-81
2022/09/18 10:28:30;;;;;;;2.00;0.60;;;14.70;99.90;;;;;;5011990;28;20046;-81
2022/09/18 10:31:04;;;;;;;2.30;0.70;;;14.80;99.90;;;;;;5006012;28;20054;-81
2022/09/18 10:33:50;;;;;;;2.78;0.68;;;14.90;99.90;;;;;;5005588;28;20058;-82
2022/09/18 10:36:20;;;;;;;3.08;0.73;;;15.00;99.90;;;;;;5020140;28;20500;-81
2022/09/18 10:38:47;;;;;;;2.78;0.60;;;15.10;99.90;;;;;;5003905;28;20169;-82
2022/09/18 10:41:36;;;;;;;2.08;0.73;;;15.10;99.90;;;;;;5006653;28;20045;-82
2022/09/18 10:44:29;;;;;;;5.63;0.70;;;15.20;99.90;;;;;;5019814;28;20455;-82
2022/09/18 10:47:09;;;;;;;3.03;0.60;;;15.20;99.90;;;;;;5020748;28;20081;-81
2022/09/18 10:49:39;;;;;;;2.58;0.85;;;15.20;99.90;;;;;;5018006;28;20068;-81
2022/09/18 10:52:19;;;;;;;2.05;0.50;;;15.30;99.90;;;;;;5019833;28;20484;-82
2022/09/18 10:55:06;;;;;;;1.85;0.60;;;15.40;99.90;;;;;;5020575;28;20123;-81
2022/09/18 10:57:37;;;;;;;1.63;0.70;;;15.40;99.90;;;;;;5004323;28;20145;-82
2022/09/18 11:00:24;;;;;;;1.85;0.75;;;15.50;99.90;;;;;;5032979;28;20038;-82
2022/09/18 11:03:19;;;;;;;1.20;0.60;;;15.50;99.90;;;;;;5021773;28;20030;-82
2022/09/18 11:05:59;;;;;;;2.55;0.55;;;15.50;99.90;;;;;;5003459;28;20054;-81
2022/09/18 11:08:30;;;;;;;2.47;0.63;;;15.60;99.90;;;;;;5016533;28;20053;-81
2022/09/18 11:11:01;;;;;;;3.92;0.90;;;15.60;99.90;;;;;;5013972;28;20129;-82
2022/09/18 11:13:30;;;;;;;2.75;0.85;;;15.60;99.90;;;;;;5011805;28;20060;-82
2022/09/18 11:16:01;;;;;;;2.47;0.70;;;15.70;99.90;;;;;;5020971;28;20065;-82
2022/09/18 11:18:31;;;;;;;2.20;0.55;;;15.80;99.90;;;;;;5017945;28;20141;-82
2022/09/18 11:21:03;;;;;;;2.33;0.50;;;15.80;99.90;;;;;;5027472;28;20046;-82
2022/09/18 11:23:35;;;;;;;4.32;0.65;;;15.90;99.90;;;;;;5015594;28;20070;-82
2022/09/18 11:26:28;;;;;;;2.35;0.60;;;16.00;99.90;;;;;;5010087;28;20141;-81
2022/09/18 11:29:04;;;;;;;2.03;0.52;;;16.00;99.90;;;;;;5013237;28;20042;-82
2022/09/18 11:31:44;;;;;;;2.25;0.60;;;16.10;99.90;;;;;;5010443;28;20069;-82
2022/09/18 11:34:17;;;;;;;;;;;16.20;99.90;;;;;;5023728;28;20137;-81
2022/09/18 11:36:50;;;;;;;3.50;0.70;;;16.20;99.90;;;;;;5014058;28;20029;-81
2022/09/18 11:39:25;;;;;;;2.80;0.52;;;16.20;99.90;;;;;;5004891;28;20100;-81
2022/09/18 11:41:53;;;;;;;2.35;0.70;;;16.30;99.90;;;;;;5018419;28;20389;-81
2022/09/18 11:44:30;;;;;;;3.63;0.80;;;16.30;99.90;;;;;;5016440;28;20531;-82
2022/09/18 11:47:06;;;;;;;2.00;0.52;;;16.50;99.90;;;;;;5018157;28;20061;-82
2022/09/18 11:49:41;;;;;;;2.78;0.68;;;16.60;99.90;;;;;;5021788;28;20050;-82
2022/09/18 11:52:17;;;;;;;4.78;0.80;;;16.70;99.90;;;;;;5022380;28;20041;-82
2022/09/18 11:55:00;;;;;;;1.63;0.40;;;16.80;99.90;;;;;;5022434;28;20053;-82
2022/09/18 11:57:47;;;;;;;1.85;0.45;;;17.00;99.90;;;;;;5018998;28;20088;-82
2022/09/18 12:00:19;;;;;;;3.03;0.60;;;17.00;99.90;;;;;;5025728;28;20050;-81
2022/09/18 12:03:13;;;;;;;3.58;0.93;;;17.00;99.90;;;;;;5008804;28;20133;-82
2022/09/18 12:05:52;;;;;;;2.75;0.73;;;17.00;99.90;;;;;;5003870;28;20483;-81
2022/09/18 12:08:41;;;;;;;2.93;0.60;;;17.10;99.90;;;;;;5013309;28;20082;-81
2022/09/18 12:11:45;;;;;;;2.95;0.50;;;17.10;99.90;;;;;;5012542;28;20137;-81
2022/09/18 12:14:24;;;;;;;2.22;0.60;;;17.10;99.90;;;;;;5015002;28;20506;-81
2022/09/18 12:17:10;;;;;;;2.20;0.70;;;17.10;99.90;;;;;;5004318;28;20141;-82
2022/09/18 12:19:49;;;;;;;3.50;0.60;;;17.10;99.90;;;;;;5006784;28;20076;-81
2022/09/18 12:22:21;;;;;;;1.15;0.63;;;17.10;99.90;;;;;;4988677;28;20133;-81
2022/09/18 12:24:49;;;;;;;2.08;0.60;;;17.10;99.90;;;;;;5014637;28;20042;-82
2022/09/18 12:27:43;;;;;;;1.48;0.63;;;17.00;99.90;;;;;;5005855;28;20058;-81
2022/09/18 12:30:13;;;;;;;2.05;0.50;;;16.90;99.90;;;;;;5008503;28;20145;-81
2022/09/18 12:32:43;;;;;;;1.85;0.30;;;16.90;99.90;;;;;;5007461;28;20045;-81
2022/09/18 12:35:32;;;;;;;4.93;0.55;;;16.90;99.90;;;;;;5004173;28;20050;-81
2022/09/18 12:38:28;;;;;;;1.20;0.52;;;16.90;99.90;;;;;;5003384;28;20065;-81
2022/09/18 12:41:23;;;;;;;1.38;0.68;;;16.90;99.90;;;;;;5009295;28;20414;-81
2022/09/18 12:43:52;;;;;;;0.57;0.30;;;17.00;99.90;;;;;;5016310;28;20038;-81
2022/09/18 12:46:22;;;;;;;1.23;0.57;;;17.00;99.90;;;;;;5007583;28;20046;-82
2022/09/18 12:49:16;;;;;;;2.88;0.68;;;17.10;99.90;;;;;;5019172;28;20057;-81
2022/09/18 12:51:47;;;;;;;1.52;0.57;;;17.30;99.90;;;;;;5002974;28;20046;-81
2022/09/18 12:54:38;;;;;;;2.05;0.60;;;17.40;99.90;;;;;;5001998;28;20374;-81
2022/09/18 12:57:37;;;;;;;1.08;0.40;;;17.40;99.90;;;;;;5006511;28;20502;-81
2022/09/18 13:00:11;;;;;;;2.33;0.40;;;17.40;99.90;;;;;;4999205;28;20049;-84
2022/09/18 13:03:11;;;;;;;3.05;0.40;;;17.40;99.90;;;;;;5014976;28;20038;-82
2022/09/18 13:05:44;;;;;;;2.10;0.70;;;17.30;99.90;;;;;;5013229;28;20074;-81
2022/09/18 13:08:19;;;;;;;1.92;0.40;;;17.30;99.90;;;;;;4999625;28;20457;-81
2022/09/18 13:10:48;;;;;;;1.95;0.40;;;17.30;99.90;;;;;;5014124;28;20050;-81
2022/09/18 13:13:28;;;;;;;2.10;0.50;;;17.20;99.90;;;;;;5012478;28;20541;-81
2022/09/18 13:16:13;;;;;;;1.02;0.40;;;17.20;99.90;;;;;;5015388;28;20056;-81
2022/09/18 13:18:56;;;;;;;2.22;0.70;;;17.20;99.90;;;;;;5011646;28;20086;-81
2022/09/18 13:21:32;;;;;;;2.40;0.65;;;17.20;99.90;;;;;;5002845;28;20129;-81